sensor_id;sensor_type;location;lat;lon;timestamp;P1;durP1;ratioP1;P2;durP2;ratioP2
16063;SDS011;8136;53.172;8.256;2023-04-07T00:01:49;16.73;;;13.67;;
16063;SDS011;8136;53.172;8.256;2023-04-07T00:04:16;17.30;;;13.47;;
16063;SDS011;8136;53.172;8.256;2023-04-07T00:06:43;21.23;;;13.97;;
16063;SDS011;8136;53.172;8.256;2023-04-07T00:09:10;18.93;;;13.13;;
16063;SDS011;8136;53.172;8.256;2023-04-07T00:11:38;16.63;;;13.30;;
16063;SDS011;8136;53.172;8.256;2023-04-07T00:14:04;18.73;;;13.80;;
16063;SDS011;8136;53.172;8.256;2023-04-07T00:16:31;17.97;;;13.77;;
16063;SDS011;8136;53.172;8.256;2023-04-07T00:18:58;16.97;;;13.60;;
16063;SDS011;8136;53.172;8.256;2023-04-07T00:21:25;18.13;;;13.87;;
16063;SDS011;8136;53.172;8.256;2023-04-07T00:23:52;18.53;;;13.93;;
16063;SDS011;8136;53.172;8.256;2023-04-07T00:26:18;18.87;;;13.33;;
16063;SDS011;8136;53.172;8.256;2023-04-07T00:28:47;18.83;;;12.20;;
16063;SDS011;8136;53.172;8.256;2023-04-07T00:31:13;19.17;;;13.80;;
16063;SDS011;8136;53.172;8.256;2023-04-07T00:33:40;17.43;;;12.73;;
16063;SDS011;8136;53.172;8.256;2023-04-07T00:36:07;16.43;;;12.20;;
16063;SDS011;8136;53.172;8.256;2023-04-07T00:38:34;19.53;;;12.70;;
16063;SDS011;8136;53.172;8.256;2023-04-07T00:41:01;19.03;;;13.17;;
16063;SDS011;8136;53.172;8.256;2023-04-07T00:43:27;18.70;;;12.77;;
16063;SDS011;8136;53.172;8.256;2023-04-07T00:45:55;16.80;;;12.63;;
16063;SDS011;8136;53.172;8.256;2023-04-07T00:48:22;19.30;;;13.70;;
16063;SDS011;8136;53.172;8.256;2023-04-07T00:50:50;17.77;;;12.67;;
16063;SDS011;8136;53.172;8.256;2023-04-07T00:53:17;16.77;;;12.03;;
16063;SDS011;8136;53.172;8.256;2023-04-07T00:55:44;17.73;;;12.93;;
16063;SDS011;8136;53.172;8.256;2023-04-07T00:58:11;17.93;;;13.40;;
16063;SDS011;8136;53.172;8.256;2023-04-07T01:00:40;17.93;;;13.20;;
16063;SDS011;8136;53.172;8.256;2023-04-07T01:03:17;17.77;;;12.10;;
16063;SDS011;8136;53.172;8.256;2023-04-07T01:05:48;18.43;;;12.87;;
16063;SDS011;8136;53.172;8.256;2023-04-07T01:08:20;15.37;;;11.90;;
16063;SDS011;8136;53.172;8.256;2023-04-07T01:10:50;14.37;;;11.20;;
16063;SDS011;8136;53.172;8.256;2023-04-07T01:13:21;16.27;;;11.37;;
16063;SDS011;8136;53.172;8.256;2023-04-07T01:15:51;15.50;;;11.60;;
16063;SDS011;8136;53.172;8.256;2023-04-07T01:18:23;15.37;;;11.33;;
16063;SDS011;8136;53.172;8.256;2023-04-07T01:20:55;13.97;;;10.57;;
16063;SDS011;8136;53.172;8.256;2023-04-07T01:23:30;14.37;;;10.97;;
16063;SDS011;8136;53.172;8.256;2023-04-07T01:29:08;13.57;;;10.70;;
16063;SDS011;8136;53.172;8.256;2023-04-07T01:31:49;14.13;;;11.10;;
16063;SDS011;8136;53.172;8.256;2023-04-07T01:34:16;12.53;;;10.10;;
16063;SDS011;8136;53.172;8.256;2023-04-07T01:36:44;13.87;;;10.77;;
16063;SDS011;8136;53.172;8.256;2023-04-07T01:39:11;14.77;;;11.17;;
16063;SDS011;8136;53.172;8.256;2023-04-07T01:41:38;16.53;;;11.03;;
16063;SDS011;8136;53.172;8.256;2023-04-07T01:44:07;14.63;;;10.00;;
16063;SDS011;8136;53.172;8.256;2023-04-07T01:46:37;13.43;;;10.27;;
16063;SDS011;8136;53.172;8.256;2023-04-07T01:49:03;12.17;;;9.53;;
16063;SDS011;8136;53.172;8.256;2023-04-07T01:51:31;13.83;;;9.70;;
16063;SDS011;8136;53.172;8.256;2023-04-07T01:53:59;14.13;;;10.00;;
16063;SDS011;8136;53.172;8.256;2023-04-07T01:56:27;13.97;;;9.50;;
16063;SDS011;8136;53.172;8.256;2023-04-07T01:58:54;13.23;;;9.37;;
16063;SDS011;8136;53.172;8.256;2023-04-07T02:01:21;13.07;;;8.83;;
16063;SDS011;8136;53.172;8.256;2023-04-07T02:03:50;11.43;;;8.57;;
16063;SDS011;8136;53.172;8.256;2023-04-07T02:06:21;10.50;;;9.03;;
16063;SDS011;8136;53.172;8.256;2023-04-07T02:08:54;10.50;;;8.77;;
16063;SDS011;8136;53.172;8.256;2023-04-07T02:11:25;11.57;;;9.33;;
16063;SDS011;8136;53.172;8.256;2023-04-07T02:13:52;11.90;;;9.60;;
16063;SDS011;8136;53.172;8.256;2023-04-07T02:16:20;12.97;;;8.93;;
16063;SDS011;8136;53.172;8.256;2023-04-07T02:18:49;12.77;;;9.07;;
16063;SDS011;8136;53.172;8.256;2023-04-07T02:21:17;12.00;;;9.13;;
16063;SDS011;8136;53.172;8.256;2023-04-07T02:23:45;11.97;;;9.23;;
16063;SDS011;8136;53.172;8.256;2023-04-07T02:26:12;13.23;;;9.60;;
16063;SDS011;8136;53.172;8.256;2023-04-07T02:28:39;11.97;;;9.03;;
16063;SDS011;8136;53.172;8.256;2023-04-07T02:31:05;11.63;;;8.70;;
16063;SDS011;8136;53.172;8.256;2023-04-07T02:33:32;13.77;;;9.70;;
16063;SDS011;8136;53.172;8.256;2023-04-07T02:36:00;12.70;;;9.83;;
16063;SDS011;8136;53.172;8.256;2023-04-07T02:38:27;12.07;;;9.47;;
16063;SDS011;8136;53.172;8.256;2023-04-07T02:40:54;11.70;;;9.70;;
16063;SDS011;8136;53.172;8.256;2023-04-07T02:43:22;13.27;;;9.83;;
16063;SDS011;8136;53.172;8.256;2023-04-07T02:45:49;12.27;;;9.73;;
16063;SDS011;8136;53.172;8.256;2023-04-07T02:48:16;11.43;;;8.47;;
16063;SDS011;8136;53.172;8.256;2023-04-07T02:50:43;12.13;;;9.60;;
16063;SDS011;8136;53.172;8.256;2023-04-07T02:53:11;11.77;;;9.67;;
16063;SDS011;8136;53.172;8.256;2023-04-07T02:55:38;10.87;;;9.47;;
16063;SDS011;8136;53.172;8.256;2023-04-07T02:58:05;14.00;;;10.13;;
16063;SDS011;8136;53.172;8.256;2023-04-07T03:00:32;12.17;;;9.67;;
16063;SDS011;8136;53.172;8.256;2023-04-07T03:02:59;11.67;;;9.47;;
16063;SDS011;8136;53.172;8.256;2023-04-07T03:05:26;12.93;;;10.07;;
16063;SDS011;8136;53.172;8.256;2023-04-07T03:07:53;10.67;;;9.57;;
16063;SDS011;8136;53.172;8.256;2023-04-07T03:10:21;12.97;;;9.93;;
16063;SDS011;8136;53.172;8.256;2023-04-07T03:12:48;12.63;;;10.30;;
16063;SDS011;8136;53.172;8.256;2023-04-07T03:15:15;13.53;;;10.13;;
16063;SDS011;8136;53.172;8.256;2023-04-07T03:17:41;12.57;;;9.33;;
16063;SDS011;8136;53.172;8.256;2023-04-07T03:20:08;13.67;;;10.50;;
16063;SDS011;8136;53.172;8.256;2023-04-07T03:22:35;12.23;;;10.27;;
16063;SDS011;8136;53.172;8.256;2023-04-07T03:25:02;13.60;;;10.40;;
16063;SDS011;8136;53.172;8.256;2023-04-07T03:27:31;10.83;;;9.40;;
16063;SDS011;8136;53.172;8.256;2023-04-07T03:29:58;13.33;;;10.33;;
16063;SDS011;8136;53.172;8.256;2023-04-07T03:32:24;14.33;;;10.90;;
16063;SDS011;8136;53.172;8.256;2023-04-07T03:34:51;14.20;;;10.40;;
16063;SDS011;8136;53.172;8.256;2023-04-07T03:37:18;13.73;;;10.27;;
16063;SDS011;8136;53.172;8.256;2023-04-07T03:39:45;16.03;;;10.37;;
16063;SDS011;8136;53.172;8.256;2023-04-07T03:42:11;12.60;;;9.90;;
16063;SDS011;8136;53.172;8.256;2023-04-07T03:44:40;13.63;;;9.83;;
16063;SDS011;8136;53.172;8.256;2023-04-07T03:47:07;13.00;;;10.13;;
16063;SDS011;8136;53.172;8.256;2023-04-07T03:49:33;14.20;;;9.87;;
16063;SDS011;8136;53.172;8.256;2023-04-07T03:52:02;12.93;;;9.77;;
16063;SDS011;8136;53.172;8.256;2023-04-07T03:54:29;11.57;;;9.93;;
16063;SDS011;8136;53.172;8.256;2023-04-07T03:56:56;13.77;;;10.30;;
16063;SDS011;8136;53.172;8.256;2023-04-07T03:59:22;11.90;;;10.00;;
16063;SDS011;8136;53.172;8.256;2023-04-07T04:01:51;12.90;;;9.80;;
16063;SDS011;8136;53.172;8.256;2023-04-07T04:04:17;11.43;;;9.73;;
16063;SDS011;8136;53.172;8.256;2023-04-07T04:06:44;12.80;;;9.57;;
16063;SDS011;8136;53.172;8.256;2023-04-07T04:09:11;12.07;;;10.40;;
16063;SDS011;8136;53.172;8.256;2023-04-07T04:11:38;12.53;;;9.93;;
16063;SDS011;8136;53.172;8.256;2023-04-07T04:14:05;12.70;;;10.40;;
16063;SDS011;8136;53.172;8.256;2023-04-07T04:16:32;10.83;;;9.60;;
16063;SDS011;8136;53.172;8.256;2023-04-07T04:19:01;13.27;;;10.73;;
16063;SDS011;8136;53.172;8.256;2023-04-07T04:21:28;16.97;;;10.83;;
16063;SDS011;8136;53.172;8.256;2023-04-07T04:23:55;12.40;;;9.93;;
16063;SDS011;8136;53.172;8.256;2023-04-07T04:26:22;12.53;;;10.07;;
16063;SDS011;8136;53.172;8.256;2023-04-07T04:28:50;13.40;;;10.47;;
16063;SDS011;8136;53.172;8.256;2023-04-07T04:31:17;13.40;;;10.30;;
16063;SDS011;8136;53.172;8.256;2023-04-07T04:33:43;14.07;;;10.47;;
16063;SDS011;8136;53.172;8.256;2023-04-07T04:36:11;15.03;;;10.70;;
16063;SDS011;8136;53.172;8.256;2023-04-07T04:38:38;11.97;;;10.50;;
16063;SDS011;8136;53.172;8.256;2023-04-07T04:41:05;13.37;;;10.10;;
16063;SDS011;8136;53.172;8.256;2023-04-07T04:43:32;13.17;;;9.97;;
16063;SDS011;8136;53.172;8.256;2023-04-07T04:45:58;12.53;;;10.50;;
16063;SDS011;8136;53.172;8.256;2023-04-07T04:48:25;13.33;;;10.70;;
16063;SDS011;8136;53.172;8.256;2023-04-07T04:50:52;11.53;;;10.33;;
16063;SDS011;8136;53.172;8.256;2023-04-07T04:53:20;14.37;;;10.03;;
16063;SDS011;8136;53.172;8.256;2023-04-07T04:55:47;11.97;;;10.17;;
16063;SDS011;8136;53.172;8.256;2023-04-07T04:58:16;12.40;;;9.73;;
16063;SDS011;8136;53.172;8.256;2023-04-07T05:00:43;14.07;;;10.73;;
16063;SDS011;8136;53.172;8.256;2023-04-07T05:03:10;12.83;;;10.03;;
16063;SDS011;8136;53.172;8.256;2023-04-07T05:05:36;14.10;;;10.63;;
16063;SDS011;8136;53.172;8.256;2023-04-07T05:08:03;13.80;;;10.83;;
16063;SDS011;8136;53.172;8.256;2023-04-07T05:10:32;14.97;;;11.00;;
16063;SDS011;8136;53.172;8.256;2023-04-07T05:13:04;12.90;;;10.97;;
16063;SDS011;8136;53.172;8.256;2023-04-07T05:15:30;13.70;;;11.17;;
16063;SDS011;8136;53.172;8.256;2023-04-07T05:17:57;12.60;;;10.47;;
16063;SDS011;8136;53.172;8.256;2023-04-07T05:20:24;13.70;;;11.00;;
16063;SDS011;8136;53.172;8.256;2023-04-07T05:22:51;11.63;;;10.43;;
16063;SDS011;8136;53.172;8.256;2023-04-07T05:25:17;15.40;;;11.27;;
16063;SDS011;8136;53.172;8.256;2023-04-07T05:27:46;12.83;;;10.83;;
16063;SDS011;8136;53.172;8.256;2023-04-07T05:30:12;13.13;;;10.90;;
16063;SDS011;8136;53.172;8.256;2023-04-07T05:32:40;13.00;;;11.13;;
16063;SDS011;8136;53.172;8.256;2023-04-07T05:35:07;12.67;;;10.90;;
16063;SDS011;8136;53.172;8.256;2023-04-07T05:37:34;13.10;;;11.07;;
16063;SDS011;8136;53.172;8.256;2023-04-07T05:40:01;12.60;;;11.30;;
16063;SDS011;8136;53.172;8.256;2023-04-07T05:42:28;16.50;;;10.83;;
16063;SDS011;8136;53.172;8.256;2023-04-07T05:44:56;14.73;;;11.10;;
16063;SDS011;8136;53.172;8.256;2023-04-07T05:47:23;11.70;;;10.13;;
16063;SDS011;8136;53.172;8.256;2023-04-07T05:49:50;13.97;;;10.33;;
16063;SDS011;8136;53.172;8.256;2023-04-07T05:52:16;14.53;;;10.57;;
16063;SDS011;8136;53.172;8.256;2023-04-07T05:54:43;11.77;;;10.43;;
16063;SDS011;8136;53.172;8.256;2023-04-07T05:57:10;12.20;;;10.20;;
16063;SDS011;8136;53.172;8.256;2023-04-07T05:59:36;13.50;;;10.47;;
16063;SDS011;8136;53.172;8.256;2023-04-07T06:02:05;13.67;;;10.53;;
16063;SDS011;8136;53.172;8.256;2023-04-07T06:04:32;12.90;;;10.27;;
16063;SDS011;8136;53.172;8.256;2023-04-07T06:06:59;12.70;;;10.73;;
16063;SDS011;8136;53.172;8.256;2023-04-07T06:09:26;13.87;;;11.00;;
16063;SDS011;8136;53.172;8.256;2023-04-07T06:11:53;17.10;;;11.70;;
16063;SDS011;8136;53.172;8.256;2023-04-07T06:14:20;13.90;;;10.70;;
16063;SDS011;8136;53.172;8.256;2023-04-07T06:16:47;15.03;;;11.30;;
16063;SDS011;8136;53.172;8.256;2023-04-07T06:19:16;14.30;;;11.20;;
16063;SDS011;8136;53.172;8.256;2023-04-07T06:21:42;13.57;;;11.10;;
16063;SDS011;8136;53.172;8.256;2023-04-07T06:24:09;12.93;;;10.33;;
16063;SDS011;8136;53.172;8.256;2023-04-07T06:26:36;14.37;;;11.00;;
16063;SDS011;8136;53.172;8.256;2023-04-07T06:29:04;11.97;;;10.30;;
16063;SDS011;8136;53.172;8.256;2023-04-07T06:31:31;11.87;;;10.63;;
16063;SDS011;8136;53.172;8.256;2023-04-07T06:33:58;13.93;;;11.27;;
16063;SDS011;8136;53.172;8.256;2023-04-07T06:36:26;13.87;;;11.43;;
16063;SDS011;8136;53.172;8.256;2023-04-07T06:38:53;14.80;;;11.40;;
16063;SDS011;8136;53.172;8.256;2023-04-07T06:41:21;13.40;;;10.93;;
16063;SDS011;8136;53.172;8.256;2023-04-07T06:43:48;15.00;;;10.87;;
16063;SDS011;8136;53.172;8.256;2023-04-07T06:46:16;13.93;;;11.60;;
16063;SDS011;8136;53.172;8.256;2023-04-07T06:48:43;16.13;;;11.23;;
16063;SDS011;8136;53.172;8.256;2023-04-07T06:51:10;13.43;;;11.27;;
16063;SDS011;8136;53.172;8.256;2023-04-07T06:53:38;13.30;;;11.70;;
16063;SDS011;8136;53.172;8.256;2023-04-07T06:56:06;12.83;;;11.20;;
16063;SDS011;8136;53.172;8.256;2023-04-07T06:58:34;14.20;;;10.93;;
16063;SDS011;8136;53.172;8.256;2023-04-07T07:01:02;14.10;;;11.23;;
16063;SDS011;8136;53.172;8.256;2023-04-07T07:03:29;12.47;;;10.60;;
16063;SDS011;8136;53.172;8.256;2023-04-07T07:05:57;16.97;;;11.70;;
16063;SDS011;8136;53.172;8.256;2023-04-07T07:08:24;13.77;;;10.77;;
16063;SDS011;8136;53.172;8.256;2023-04-07T07:10:53;13.43;;;10.87;;
16063;SDS011;8136;53.172;8.256;2023-04-07T07:13:21;13.30;;;10.53;;
16063;SDS011;8136;53.172;8.256;2023-04-07T07:15:48;14.00;;;10.50;;
16063;SDS011;8136;53.172;8.256;2023-04-07T07:18:15;12.07;;;10.17;;
16063;SDS011;8136;53.172;8.256;2023-04-07T07:20:42;10.73;;;9.63;;
16063;SDS011;8136;53.172;8.256;2023-04-07T07:23:10;14.47;;;10.27;;
16063;SDS011;8136;53.172;8.256;2023-04-07T07:25:36;13.93;;;10.27;;
16063;SDS011;8136;53.172;8.256;2023-04-07T07:28:04;11.23;;;9.80;;
16063;SDS011;8136;53.172;8.256;2023-04-07T07:30:31;11.73;;;10.20;;
16063;SDS011;8136;53.172;8.256;2023-04-07T07:32:58;14.60;;;10.53;;
16063;SDS011;8136;53.172;8.256;2023-04-07T07:35:25;12.40;;;9.93;;
16063;SDS011;8136;53.172;8.256;2023-04-07T07:37:51;12.53;;;10.30;;
16063;SDS011;8136;53.172;8.256;2023-04-07T07:40:18;11.47;;;9.90;;
16063;SDS011;8136;53.172;8.256;2023-04-07T07:42:45;11.73;;;9.27;;
16063;SDS011;8136;53.172;8.256;2023-04-07T07:45:13;12.77;;;9.87;;
16063;SDS011;8136;53.172;8.256;2023-04-07T07:47:41;11.23;;;10.00;;
16063;SDS011;8136;53.172;8.256;2023-04-07T07:50:08;11.27;;;10.00;;
16063;SDS011;8136;53.172;8.256;2023-04-07T07:52:35;12.40;;;10.53;;
16063;SDS011;8136;53.172;8.256;2023-04-07T07:55:03;13.63;;;10.70;;
16063;SDS011;8136;53.172;8.256;2023-04-07T07:57:30;11.00;;;9.90;;
16063;SDS011;8136;53.172;8.256;2023-04-07T07:59:57;10.63;;;9.53;;
16063;SDS011;8136;53.172;8.256;2023-04-07T08:02:33;12.00;;;10.23;;
16063;SDS011;8136;53.172;8.256;2023-04-07T08:05:04;12.50;;;10.17;;
16063;SDS011;8136;53.172;8.256;2023-04-07T08:07:51;15.07;;;9.93;;
16063;SDS011;8136;53.172;8.256;2023-04-07T08:10:19;15.03;;;8.87;;
16063;SDS011;8136;53.172;8.256;2023-04-07T08:12:47;10.13;;;9.03;;
16063;SDS011;8136;53.172;8.256;2023-04-07T08:15:14;12.50;;;9.10;;
16063;SDS011;8136;53.172;8.256;2023-04-07T08:17:51;11.67;;;9.17;;
16063;SDS011;8136;53.172;8.256;2023-04-07T08:20:18;10.53;;;9.00;;
16063;SDS011;8136;53.172;8.256;2023-04-07T08:22:45;10.80;;;9.03;;
16063;SDS011;8136;53.172;8.256;2023-04-07T08:25:13;10.50;;;9.40;;
16063;SDS011;8136;53.172;8.256;2023-04-07T08:27:40;10.33;;;9.03;;
16063;SDS011;8136;53.172;8.256;2023-04-07T08:30:07;10.03;;;8.93;;
16063;SDS011;8136;53.172;8.256;2023-04-07T08:32:35;10.33;;;8.87;;
16063;SDS011;8136;53.172;8.256;2023-04-07T08:35:04;10.67;;;8.93;;
16063;SDS011;8136;53.172;8.256;2023-04-07T08:37:32;11.13;;;8.83;;
16063;SDS011;8136;53.172;8.256;2023-04-07T08:40:00;10.63;;;8.80;;
16063;SDS011;8136;53.172;8.256;2023-04-07T08:42:29;12.23;;;8.83;;
16063;SDS011;8136;53.172;8.256;2023-04-07T08:44:56;10.73;;;8.60;;
16063;SDS011;8136;53.172;8.256;2023-04-07T08:47:27;10.50;;;8.30;;
16063;SDS011;8136;53.172;8.256;2023-04-07T08:50:00;12.43;;;9.30;;
16063;SDS011;8136;53.172;8.256;2023-04-07T08:52:31;10.47;;;9.33;;
16063;SDS011;8136;53.172;8.256;2023-04-07T08:55:05;13.07;;;9.77;;
16063;SDS011;8136;53.172;8.256;2023-04-07T08:57:36;12.03;;;9.73;;
16063;SDS011;8136;53.172;8.256;2023-04-07T09:00:04;12.20;;;9.77;;
16063;SDS011;8136;53.172;8.256;2023-04-07T09:02:35;10.17;;;8.97;;
16063;SDS011;8136;53.172;8.256;2023-04-07T09:05:07;10.67;;;9.20;;
16063;SDS011;8136;53.172;8.256;2023-04-07T09:07:38;11.10;;;9.13;;
16063;SDS011;8136;53.172;8.256;2023-04-07T09:10:07;12.10;;;9.50;;
16063;SDS011;8136;53.172;8.256;2023-04-07T09:12:35;12.10;;;9.67;;
16063;SDS011;8136;53.172;8.256;2023-04-07T09:15:14;11.13;;;9.17;;
16063;SDS011;8136;53.172;8.256;2023-04-07T09:17:55;11.57;;;9.33;;
16063;SDS011;8136;53.172;8.256;2023-04-07T09:23:38;10.83;;;8.07;;
16063;SDS011;8136;53.172;8.256;2023-04-07T09:26:47;10.13;;;7.53;;
16063;SDS011;8136;53.172;8.256;2023-04-07T11:30:36;8.60;;;7.00;;
16063;SDS011;8136;53.172;8.256;2023-04-07T11:33:03;9.00;;;7.60;;
16063;SDS011;8136;53.172;8.256;2023-04-07T11:35:30;9.20;;;7.27;;
16063;SDS011;8136;53.172;8.256;2023-04-07T11:37:57;9.30;;;7.40;;
16063;SDS011;8136;53.172;8.256;2023-04-07T11:50:40;10.87;;;7.37;;
16063;SDS011;8136;53.172;8.256;2023-04-07T11:53:07;9.40;;;7.33;;
16063;SDS011;8136;53.172;8.256;2023-04-07T11:55:35;8.57;;;6.67;;
16063;SDS011;8136;53.172;8.256;2023-04-07T11:58:06;8.43;;;6.90;;
16063;SDS011;8136;53.172;8.256;2023-04-07T12:00:34;8.13;;;6.10;;
16063;SDS011;8136;53.172;8.256;2023-04-07T12:03:09;9.63;;;5.93;;
16063;SDS011;8136;53.172;8.256;2023-04-07T12:05:43;8.23;;;6.40;;
16063;SDS011;8136;53.172;8.256;2023-04-07T12:08:10;9.33;;;6.23;;
16063;SDS011;8136;53.172;8.256;2023-04-07T12:10:37;8.43;;;7.00;;
16063;SDS011;8136;53.172;8.256;2023-04-07T12:13:07;9.87;;;6.83;;
16063;SDS011;8136;53.172;8.256;2023-04-07T12:15:35;7.43;;;6.43;;
16063;SDS011;8136;53.172;8.256;2023-04-07T12:18:02;9.07;;;6.97;;
16063;SDS011;8136;53.172;8.256;2023-04-07T12:20:28;10.77;;;7.20;;
16063;SDS011;8136;53.172;8.256;2023-04-07T12:22:57;11.93;;;7.00;;
16063;SDS011;8136;53.172;8.256;2023-04-07T12:25:24;9.30;;;6.57;;
16063;SDS011;8136;53.172;8.256;2023-04-07T12:27:52;9.10;;;7.03;;
16063;SDS011;8136;53.172;8.256;2023-04-07T12:30:19;9.13;;;6.73;;
16063;SDS011;8136;53.172;8.256;2023-04-07T12:32:46;9.03;;;7.03;;
16063;SDS011;8136;53.172;8.256;2023-04-07T12:35:13;9.10;;;6.40;;
16063;SDS011;8136;53.172;8.256;2023-04-07T12:37:40;9.23;;;6.80;;
16063;SDS011;8136;53.172;8.256;2023-04-07T12:40:09;7.57;;;6.47;;
16063;SDS011;8136;53.172;8.256;2023-04-07T12:42:36;8.97;;;6.47;;
16063;SDS011;8136;53.172;8.256;2023-04-07T12:45:03;10.20;;;6.30;;
16063;SDS011;8136;53.172;8.256;2023-04-07T12:47:30;9.97;;;6.53;;
16063;SDS011;8136;53.172;8.256;2023-04-07T12:49:57;8.70;;;7.30;;
16063;SDS011;8136;53.172;8.256;2023-04-07T12:52:24;8.03;;;6.30;;
16063;SDS011;8136;53.172;8.256;2023-04-07T12:54:51;10.50;;;7.20;;
16063;SDS011;8136;53.172;8.256;2023-04-07T12:57:19;8.77;;;6.40;;
16063;SDS011;8136;53.172;8.256;2023-04-07T12:59:46;8.03;;;6.57;;
16063;SDS011;8136;53.172;8.256;2023-04-07T13:02:13;9.40;;;6.83;;
16063;SDS011;8136;53.172;8.256;2023-04-07T13:04:42;8.73;;;6.50;;
16063;SDS011;8136;53.172;8.256;2023-04-07T13:07:10;9.27;;;5.80;;
16063;SDS011;8136;53.172;8.256;2023-04-07T13:09:37;8.03;;;6.37;;
16063;SDS011;8136;53.172;8.256;2023-04-07T13:12:05;8.10;;;6.63;;
16063;SDS011;8136;53.172;8.256;2023-04-07T13:14:33;7.90;;;6.03;;
16063;SDS011;8136;53.172;8.256;2023-04-07T13:17:00;8.70;;;6.40;;
16063;SDS011;8136;53.172;8.256;2023-04-07T13:19:27;7.07;;;6.10;;
16063;SDS011;8136;53.172;8.256;2023-04-07T13:21:54;8.27;;;6.73;;
16063;SDS011;8136;53.172;8.256;2023-04-07T13:24:21;10.00;;;6.43;;
16063;SDS011;8136;53.172;8.256;2023-04-07T13:26:49;7.57;;;6.23;;
16063;SDS011;8136;53.172;8.256;2023-04-07T13:29:16;7.10;;;5.97;;
16063;SDS011;8136;53.172;8.256;2023-04-07T13:31:45;7.60;;;6.60;;
16063;SDS011;8136;53.172;8.256;2023-04-07T13:34:12;7.97;;;6.70;;
16063;SDS011;8136;53.172;8.256;2023-04-07T13:36:39;8.90;;;6.23;;
16063;SDS011;8136;53.172;8.256;2023-04-07T13:39:06;6.93;;;5.87;;
16063;SDS011;8136;53.172;8.256;2023-04-07T13:41:33;8.20;;;5.83;;
16063;SDS011;8136;53.172;8.256;2023-04-07T13:44:00;8.93;;;5.70;;
16063;SDS011;8136;53.172;8.256;2023-04-07T13:46:27;9.63;;;6.17;;
16063;SDS011;8136;53.172;8.256;2023-04-07T13:48:56;8.80;;;6.03;;
16063;SDS011;8136;53.172;8.256;2023-04-07T13:51:23;6.80;;;5.73;;
16063;SDS011;8136;53.172;8.256;2023-04-07T13:53:50;9.67;;;6.57;;
16063;SDS011;8136;53.172;8.256;2023-04-07T13:56:16;8.73;;;6.40;;
16063;SDS011;8136;53.172;8.256;2023-04-07T13:58:43;7.50;;;6.00;;
16063;SDS011;8136;53.172;8.256;2023-04-07T14:01:10;6.77;;;5.90;;
16063;SDS011;8136;53.172;8.256;2023-04-07T14:03:37;7.73;;;6.17;;
16063;SDS011;8136;53.172;8.256;2023-04-07T14:06:05;7.57;;;6.23;;
16063;SDS011;8136;53.172;8.256;2023-04-07T14:08:32;8.60;;;5.40;;
16063;SDS011;8136;53.172;8.256;2023-04-07T14:10:59;8.23;;;6.83;;
16063;SDS011;8136;53.172;8.256;2023-04-07T14:13:26;7.03;;;5.70;;
16063;SDS011;8136;53.172;8.256;2023-04-07T14:15:52;8.93;;;5.63;;
16063;SDS011;8136;53.172;8.256;2023-04-07T14:18:19;7.67;;;5.83;;
16063;SDS011;8136;53.172;8.256;2023-04-07T14:20:47;6.97;;;6.00;;
16063;SDS011;8136;53.172;8.256;2023-04-07T14:23:16;6.00;;;5.00;;
16063;SDS011;8136;53.172;8.256;2023-04-07T14:25:42;7.37;;;5.67;;
16063;SDS011;8136;53.172;8.256;2023-04-07T14:28:10;7.63;;;5.40;;
16063;SDS011;8136;53.172;8.256;2023-04-07T14:30:36;7.67;;;5.53;;
16063;SDS011;8136;53.172;8.256;2023-04-07T14:33:03;6.90;;;5.27;;
16063;SDS011;8136;53.172;8.256;2023-04-07T14:35:30;5.20;;;4.70;;
16063;SDS011;8136;53.172;8.256;2023-04-07T14:37:57;5.63;;;4.88;;
16063;SDS011;8136;53.172;8.256;2023-04-07T14:40:25;6.43;;;4.68;;
16063;SDS011;8136;53.172;8.256;2023-04-07T14:42:52;5.40;;;4.72;;
16063;SDS011;8136;53.172;8.256;2023-04-07T14:45:19;6.88;;;4.65;;
16063;SDS011;8136;53.172;8.256;2023-04-07T14:47:47;5.28;;;4.78;;
16063;SDS011;8136;53.172;8.256;2023-04-07T14:50:14;9.07;;;4.90;;
16063;SDS011;8136;53.172;8.256;2023-04-07T14:52:41;5.63;;;4.57;;
16063;SDS011;8136;53.172;8.256;2023-04-07T14:55:08;7.97;;;4.88;;
16063;SDS011;8136;53.172;8.256;2023-04-07T14:57:37;6.20;;;4.50;;
16063;SDS011;8136;53.172;8.256;2023-04-07T15:00:04;7.00;;;4.53;;
16063;SDS011;8136;53.172;8.256;2023-04-07T15:02:33;4.63;;;4.20;;
16063;SDS011;8136;53.172;8.256;2023-04-07T15:05:00;4.70;;;3.90;;
16063;SDS011;8136;53.172;8.256;2023-04-07T15:07:27;4.30;;;3.90;;
16063;SDS011;8136;53.172;8.256;2023-04-07T15:09:54;5.47;;;4.18;;
16063;SDS011;8136;53.172;8.256;2023-04-07T15:12:21;4.63;;;4.10;;
16063;SDS011;8136;53.172;8.256;2023-04-07T15:14:50;5.53;;;4.20;;
16063;SDS011;8136;53.172;8.256;2023-04-07T15:17:17;4.80;;;4.07;;
16063;SDS011;8136;53.172;8.256;2023-04-07T15:19:45;5.07;;;4.57;;
16063;SDS011;8136;53.172;8.256;2023-04-07T15:22:12;5.18;;;4.60;;
16063;SDS011;8136;53.172;8.256;2023-04-07T15:24:39;6.28;;;4.10;;
16063;SDS011;8136;53.172;8.256;2023-04-07T15:27:06;5.35;;;4.85;;
16063;SDS011;8136;53.172;8.256;2023-04-07T15:29:34;9.57;;;8.10;;
16063;SDS011;8136;53.172;8.256;2023-04-07T15:32:04;9.25;;;6.15;;
16063;SDS011;8136;53.172;8.256;2023-04-07T15:34:31;7.47;;;4.13;;
16063;SDS011;8136;53.172;8.256;2023-04-07T15:36:58;4.22;;;3.83;;
16063;SDS011;8136;53.172;8.256;2023-04-07T15:39:24;4.05;;;3.65;;
16063;SDS011;8136;53.172;8.256;2023-04-07T15:41:51;5.13;;;4.45;;
16063;SDS011;8136;53.172;8.256;2023-04-07T15:44:18;10.35;;;4.40;;
16063;SDS011;8136;53.172;8.256;2023-04-07T15:46:45;4.35;;;3.75;;
16063;SDS011;8136;53.172;8.256;2023-04-07T15:49:13;4.40;;;3.95;;
16063;SDS011;8136;53.172;8.256;2023-04-07T15:51:44;4.03;;;3.63;;
16063;SDS011;8136;53.172;8.256;2023-04-07T15:54:10;4.70;;;4.03;;
16063;SDS011;8136;53.172;8.256;2023-04-07T15:56:37;6.05;;;3.72;;
16063;SDS011;8136;53.172;8.256;2023-04-07T15:59:04;4.75;;;4.00;;
16063;SDS011;8136;53.172;8.256;2023-04-07T16:01:31;6.50;;;4.28;;
16063;SDS011;8136;53.172;8.256;2023-04-07T16:03:58;4.65;;;3.80;;
16063;SDS011;8136;53.172;8.256;2023-04-07T16:06:26;5.28;;;3.55;;
16063;SDS011;8136;53.172;8.256;2023-04-07T16:08:53;3.70;;;3.38;;
16063;SDS011;8136;53.172;8.256;2023-04-07T16:11:20;4.60;;;3.95;;
16063;SDS011;8136;53.172;8.256;2023-04-07T16:13:47;4.20;;;3.80;;
16063;SDS011;8136;53.172;8.256;2023-04-07T16:16:13;4.13;;;3.70;;
16063;SDS011;8136;53.172;8.256;2023-04-07T16:18:40;5.95;;;3.90;;
16063;SDS011;8136;53.172;8.256;2023-04-07T16:21:07;4.93;;;3.83;;
16063;SDS011;8136;53.172;8.256;2023-04-07T16:23:35;5.00;;;3.80;;
16063;SDS011;8136;53.172;8.256;2023-04-07T16:26:02;5.20;;;3.90;;
16063;SDS011;8136;53.172;8.256;2023-04-07T16:28:29;5.05;;;3.80;;
16063;SDS011;8136;53.172;8.256;2023-04-07T16:30:56;5.60;;;3.80;;
16063;SDS011;8136;53.172;8.256;2023-04-07T16:33:23;4.13;;;3.57;;
16063;SDS011;8136;53.172;8.256;2023-04-07T16:35:52;5.40;;;3.80;;
16063;SDS011;8136;53.172;8.256;2023-04-07T16:38:18;4.50;;;3.77;;
16063;SDS011;8136;53.172;8.256;2023-04-07T16:40:48;4.07;;;3.60;;
16063;SDS011;8136;53.172;8.256;2023-04-07T16:43:15;4.43;;;3.57;;
16063;SDS011;8136;53.172;8.256;2023-04-07T16:45:41;4.73;;;3.70;;
16063;SDS011;8136;53.172;8.256;2023-04-07T16:48:15;6.27;;;3.50;;
16063;SDS011;8136;53.172;8.256;2023-04-07T16:50:42;4.63;;;3.73;;
16063;SDS011;8136;53.172;8.256;2023-04-07T16:53:10;4.20;;;3.30;;
16063;SDS011;8136;53.172;8.256;2023-04-07T16:55:36;5.90;;;3.60;;
16063;SDS011;8136;53.172;8.256;2023-04-07T16:58:05;4.20;;;3.80;;
16063;SDS011;8136;53.172;8.256;2023-04-07T17:00:31;4.70;;;3.93;;
16063;SDS011;8136;53.172;8.256;2023-04-07T17:02:58;3.47;;;3.17;;
16063;SDS011;8136;53.172;8.256;2023-04-07T17:05:25;4.80;;;3.70;;
16063;SDS011;8136;53.172;8.256;2023-04-07T17:07:52;7.53;;;4.00;;
16063;SDS011;8136;53.172;8.256;2023-04-07T17:10:19;4.23;;;3.70;;